CPW9 weather

Public forecast

Using degrees Celsius for public forecast. Weather courtesy of forecast.io.

Closest aviation weather report (METAR) to Port Alberni Seaplane Base

Closest report is Comox Airport, 28.9 nm (53.5 km) N. Retrieved 2020/08/12 01:00 UTC (10 minutes ago):

CYQQ 120100Z CCA 33007KT 20SM BKN064 18/08 A2989 RMK SC7 CU EMBD SLP123

Closest aviation forecast (TAF) to Port Alberni Seaplane Base

Closest forecast is Comox Airport, 28.9 nm (53.5 km) N. Retrieved 2020-08-12 00:42 UTC (28 minutes ago):

TAF CYQQ 112339Z 1200/1224 33010KT P6SM SCT050 BKN200 TEMPO 1200/1203 BKN050 FM120300 33010G20KT P6SM FEW050 FM121200 33008KT P6SM SCT030 TEMPO 1212/1216 BKN030 BECMG 1217/1219 02008KT RMK NXT FCST BY 120600Z